| time (UTC) | temp C | wind direction | speed KPH | gust KPH | rain 1hr cm | rain 24hr cm | rain mn cm | humidity % | barometer mb |
| 20260503032849 | 12 | 174 | 0.0 | 0.0 | 0.00 | 0.00 | 0.00 | 50 | 1016.7 |
| 20260503032348 | 12 | 191 | 1.6 | 4.8 | 0.00 | 0.00 | 0.00 | 49 | 1016.8 |
| 20260503031845 | 12 | 215 | 0.0 | 3.2 | 0.00 | 0.00 | 0.00 | 46 | 1016.8 |
| 20260503031343 | 13 | 40 | 0.0 | 0.0 | 0.00 | 0.00 | 0.00 | 44 | 1016.7 |
| 20260503030839 | 13 | 49 | 0.0 | 0.0 | 0.00 | 0.00 | 0.00 | 44 | 1016.6 |
| 20260503030336 | 15 | 21 | 0.0 | 0.0 | 0.00 | 0.00 | 0.00 | 42 | 1016.7 |
| 20260503025832 | 15 | 21 | 0.0 | 0.0 | 0.00 | 0.00 | 0.00 | 42 | 1016.6 |
| 20260503025330 | 15 | 21 | 0.0 | 0.0 | 0.00 | 0.00 | 0.00 | 42 | 1016.6 |
| 20260503024827 | 15 | 21 | 0.0 | 0.0 | 0.00 | 0.00 | 0.00 | 42 | 1016.6 |
| 20260503024323 | 15 | 21 | 0.0 | 0.0 | 0.00 | 0.00 | 0.00 | 42 | 1016.3 |
| 20260503023820 | 15 | 21 | 0.0 | 0.0 | 0.00 | 0.00 | 0.00 | 42 | 1016.6 |
| 20260503023318 | 15 | 21 | 0.0 | 0.0 | 0.00 | 0.00 | 0.00 | 42 | 1016.2 |
| 20260503022814 | 15 | 20 | 0.0 | 0.0 | 0.00 | 0.00 | 0.00 | 43 | 1016.4 |
| 20260503022314 | 15 | 24 | 0.0 | 0.0 | 0.00 | 0.00 | 0.00 | 42 | 1016.4 |
| 20260503021811 | -17 | 0.0 | 0.0 | 0.00 | 0.00 | 0.00 | 1016.3 | ||
| 20260503021307 | -17 | 0.0 | 0.0 | 0.00 | 0.00 | 0.00 | 1016.2 | ||
| 20260503020805 | -17 | 0.0 | 0.0 | 0.00 | 0.00 | 0.00 | 1016.0 | ||
| 20260503020302 | 17 | 282 | 6.4 | 6.4 | 0.00 | 0.00 | 0.00 | 34 | 1016.2 |
| 20260503015758 | 17 | 282 | 6.4 | 6.4 | 0.00 | 0.00 | 0.00 | 34 | 1016.2 |
| 20260503015255 | 17 | 282 | 6.4 | 6.4 | 0.00 | 0.00 | 0.00 | 34 | 1015.8 |
| 20260503014751 | 17 | 282 | 6.4 | 6.4 | 0.00 | 0.00 | 0.00 | 34 | 1015.9 |
| 20260503014249 | 17 | 282 | 6.4 | 6.4 | 0.00 | 0.00 | 0.00 | 34 | 1016.0 |
| 20260503013746 | 17 | 282 | 6.4 | 6.4 | 0.00 | 0.00 | 0.00 | 34 | 1016.0 |
| 20260503013244 | 17 | 282 | 6.4 | 6.4 | 0.00 | 0.00 | 0.00 | 34 | 1016.2 |
| 20260503012741 | 17 | 282 | 6.4 | 6.4 | 0.00 | 0.00 | 0.00 | 34 | 1016.3 |
| 20260503012238 | 17 | 282 | 6.4 | 6.4 | 0.00 | 0.00 | 0.00 | 34 | 1016.3 |
| 20260503011734 | 17 | 282 | 6.4 | 6.4 | 0.00 | 0.00 | 0.00 | 34 | 1016.2 |
| 20260503011232 | 17 | 282 | 6.4 | 6.4 | 0.00 | 0.00 | 0.00 | 34 | 1016.2 |
| 20260503010727 | 17 | 282 | 6.4 | 6.4 | 0.00 | 0.00 | 0.00 | 34 | 1016.3 |
| 20260503010225 | 17 | 261 | 6.4 | 9.7 | 0.00 | 0.00 | 0.00 | 33 | 1016.4 |
| 20260503005722 | 16 | 328 | 0.0 | 0.0 | 0.00 | 0.00 | 0.00 | 36 | 1016.4 |
| 20260503005220 | 16 | 328 | 0.0 | 0.0 | 0.00 | 0.00 | 0.00 | 36 | 1016.6 |
| 20260503004715 | 16 | 328 | 0.0 | 0.0 | 0.00 | 0.00 | 0.00 | 36 | 1016.5 |
| 20260503004214 | 16 | 315 | 0.0 | 0.0 | 0.00 | 0.00 | 0.00 | 35 | 1016.6 |
| 20260503003711 | 16 | 324 | 0.0 | 0.0 | 0.00 | 0.00 | 0.00 | 35 | 1016.8 |
| 20260503003208 | 16 | 302 | 0.0 | 0.0 | 0.00 | 0.00 | 0.00 | 36 | 1016.4 |
| 20260503002704 | 16 | 276 | 0.0 | 6.4 | 0.00 | 0.00 | 0.00 | 36 | 1016.7 |
| 20260503002201 | 16 | 288 | 6.4 | 9.7 | 0.00 | 0.00 | 0.00 | 36 | 1016.8 |
| 20260503001657 | 16 | 234 | 4.8 | 6.4 | 0.00 | 0.00 | 0.00 | 36 | 1016.8 |
| 20260503001154 | 16 | 298 | 3.2 | 6.4 | 0.00 | 0.00 | 0.00 | 36 | 1016.7 |
| 20260503000652 | 16 | 293 | 8.0 | 11.3 | 0.00 | 0.00 | 0.00 | 35 | 1016.9 |
| 20260503000149 | 17 | 264 | 1.6 | 3.2 | 0.00 | 0.00 | 0.00 | 35 | 1016.8 |
| 20260502235645 | 16 | 256 | 4.8 | 9.7 | 0.00 | 0.00 | 0.00 | 36 | 1016.7 |
| 20260502235144 | 16 | 254 | 4.8 | 6.4 | 0.00 | 0.00 | 0.00 | 35 | 1016.9 |
| 20260502234639 | 17 | 263 | 4.8 | 9.7 | 0.00 | 0.00 | 0.00 | 35 | 1017.2 |
| 20260502234137 | 16 | 282 | 4.8 | 11.3 | 0.00 | 0.00 | 0.00 | 35 | 1016.9 |
| 20260502233632 | 16 | 293 | 9.7 | 12.9 | 0.00 | 0.00 | 0.00 | 35 | 1016.9 |
| 20260502233129 | 17 | 270 | 4.8 | 4.8 | 0.00 | 0.00 | 0.00 | 35 | 1017.1 |
| 20260502232625 | 17 | 244 | 0.0 | 1.6 | 0.00 | 0.00 | 0.00 | 35 | 1017.2 |
| 20260502232123 | 17 | 233 | 3.2 | 3.2 | 0.00 | 0.00 | 0.00 | 34 | 1017.2 |
| 20260502231619 | 17 | 278 | 3.2 | 4.8 | 0.00 | 0.00 | 0.00 | 34 | 1017.3 |
| 20260502231118 | 17 | 245 | 8.0 | 12.9 | 0.00 | 0.00 | 0.00 | 33 | 1017.3 |
| 20260502230616 | 18 | 245 | 3.2 | 9.7 | 0.00 | 0.00 | 0.00 | 33 | 1017.3 |
| 20260502230114 | 18 | 255 | 4.8 | 6.4 | 0.00 | 0.00 | 0.00 | 33 | 1017.3 |
| 20260502225609 | 18 | 255 | 4.8 | 6.4 | 0.00 | 0.00 | 0.00 | 33 | 1017.4 |
| 20260502225106 | 18 | 255 | 4.8 | 6.4 | 0.00 | 0.00 | 0.00 | 33 | 1017.3 |
| 20260502224602 | 18 | 255 | 4.8 | 6.4 | 0.00 | 0.00 | 0.00 | 33 | 1017.4 |
| 20260502224059 | 17 | 272 | 9.7 | 12.9 | 0.00 | 0.00 | 0.00 | 33 | 1017.5 |
| 20260502223557 | 18 | 272 | 1.6 | 12.9 | 0.00 | 0.00 | 0.00 | 34 | 1017.6 |
| 20260502223055 | 18 | 314 | 3.2 | 4.8 | 0.00 | 0.00 | 0.00 | 34 | 1017.6 |
| 20260502222552 | 17 | 184 | 0.0 | 1.6 | 0.00 | 0.00 | 0.00 | 35 | 1017.9 |
| 20260502222048 | 17 | 160 | 3.2 | 4.8 | 0.00 | 0.00 | 0.00 | 36 | 1017.8 |
| 20260502221544 | 16 | 161 | 0.0 | 0.0 | 0.00 | 0.00 | 0.00 | 37 | 1018.1 |
| 20260502221042 | 17 | 265 | 4.8 | 9.7 | 0.00 | 0.00 | 0.00 | 36 | 1018.1 |
| 20260502220537 | 18 | 297 | 3.2 | 9.7 | 0.00 | 0.00 | 0.00 | 34 | 1018.1 |
| 20260502220034 | 17 | 194 | 0.0 | 11.3 | 0.00 | 0.00 | 0.00 | 35 | 1018.2 |
| 20260502215532 | 17 | 299 | 6.4 | 9.7 | 0.00 | 0.00 | 0.00 | 35 | 1018.3 |
| 20260502215028 | 17 | 324 | 8.0 | 12.9 | 0.00 | 0.00 | 0.00 | 36 | 1018.4 |
| 20260502214525 | 16 | 333 | 6.4 | 6.4 | 0.00 | 0.00 | 0.00 | 37 | 1018.3 |
| 20260502214023 | 16 | 287 | 6.4 | 6.4 | 0.00 | 0.00 | 0.00 | 37 | 1018.4 |
| 20260502213519 | 16 | 260 | 4.8 | 14.5 | 0.00 | 0.00 | 0.00 | 37 | 1018.5 |
| 20260502213018 | 16 | 294 | 9.7 | 12.9 | 0.00 | 0.00 | 0.00 | 37 | 1018.6 |
| 20260502212516 | 16 | 274 | 6.4 | 12.9 | 0.00 | 0.00 | 0.00 | 37 | 1018.6 |
| 20260502212013 | 17 | 262 | 3.2 | 11.3 | 0.00 | 0.00 | 0.00 | 36 | 1018.7 |
| 20260502211509 | 16 | 358 | 8.0 | 11.3 | 0.00 | 0.00 | 0.00 | 37 | 1018.6 |
| 20260502211006 | 17 | 355 | 9.7 | 20.9 | 0.00 | 0.00 | 0.00 | 37 | 1018.8 |
| 20260502210503 | 16 | 224 | 3.2 | 12.9 | 0.00 | 0.00 | 0.00 | 37 | 1018.8 |
| 20260502210000 | 16 | 287 | 1.6 | 3.2 | 0.00 | 0.00 | 0.00 | 37 | 1018.7 |
| 20260502205456 | 17 | 336 | 3.2 | 4.8 | 0.00 | 0.00 | 0.00 | 36 | 1019.1 |
| 20260502204954 | 17 | 207 | 0.0 | 6.4 | 0.00 | 0.00 | 0.00 | 36 | 1019.3 |
| 20260502204450 | 17 | 286 | 6.4 | 14.5 | 0.00 | 0.00 | 0.00 | 36 | 1018.9 |
| 20260502203948 | 17 | 268 | 11.3 | 16.1 | 0.00 | 0.00 | 0.00 | 36 | 1018.8 |
| 20260502203445 | 17 | 209 | 0.0 | 9.7 | 0.00 | 0.00 | 0.00 | 36 | 1019.3 |
| 20260502202941 | 17 | 192 | 1.6 | 4.8 | 0.00 | 0.00 | 0.00 | 37 | 1018.9 |
| 20260502202438 | 16 | 4 | 4.8 | 9.7 | 0.00 | 0.00 | 0.00 | 38 | 1019.1 |
| 20260502201937 | 17 | 277 | 0.0 | 4.8 | 0.00 | 0.00 | 0.00 | 37 | 1019.2 |
| 20260502201432 | 17 | 227 | 6.4 | 9.7 | 0.00 | 0.00 | 0.00 | 36 | 1019.2 |
| 20260502200929 | 17 | 174 | 0.0 | 6.4 | 0.00 | 0.00 | 0.00 | 36 | 1019.2 |
| 20260502200424 | 17 | 163 | 0.0 | 0.0 | 0.00 | 0.00 | 0.00 | 37 | 1019.4 |
| 20260502195923 | 17 | 161 | 3.2 | 4.8 | 0.00 | 0.00 | 0.00 | 36 | 1019.5 |
| 20260502195419 | 15 | 138 | 0.0 | 0.0 | 0.00 | 0.00 | 0.00 | 39 | 1019.6 |
| 20260502194916 | 15 | 335 | 0.0 | 3.2 | 0.00 | 0.00 | 0.00 | 40 | 1019.6 |
| 20260502194413 | 16 | 315 | 6.4 | 11.3 | 0.00 | 0.00 | 0.00 | 39 | 1019.6 |
| 20260502193909 | 16 | 256 | 3.2 | 12.9 | 0.00 | 0.00 | 0.00 | 38 | 1019.6 |
| 20260502193406 | 16 | 7 | 3.2 | 9.7 | 0.00 | 0.00 | 0.00 | 39 | 1019.7 |
| 20260502192901 | 16 | 55 | 4.8 | 6.4 | 0.00 | 0.00 | 0.00 | 38 | 1019.8 |
| 20260502192359 | 16 | 85 | 0.0 | 4.8 | 0.00 | 0.00 | 0.00 | 38 | 1019.8 |
| 20260502191856 | 15 | 285 | 8.0 | 11.3 | 0.00 | 0.00 | 0.00 | 40 | 1020.1 |
| 20260502191354 | 15 | 343 | 11.3 | 16.1 | 0.00 | 0.00 | 0.00 | 40 | 1020.0 |
| 20260502190851 | 15 | 356 | 11.3 | 16.1 | 0.00 | 0.00 | 0.00 | 41 | 1020.2 |
| 20260502190348 | 15 | 352 | 14.5 | 16.1 | 0.00 | 0.00 | 0.00 | 42 | 1020.2 |
| 20260502185844 | 15 | 356 | 3.2 | 20.9 | 0.00 | 0.00 | 0.00 | 42 | 1020.3 |
| 20260502185339 | 14 | 333 | 4.8 | 14.5 | 0.00 | 0.00 | 0.00 | 42 | 1020.3 |
| 20260502184837 | 14 | 349 | 16.1 | 17.7 | 0.00 | 0.00 | 0.00 | 42 | 1020.4 |
| 20260502184332 | 14 | 357 | 14.5 | 17.7 | 0.00 | 0.00 | 0.00 | 44 | 1020.4 |
| 20260502183829 | 14 | 355 | 17.7 | 20.9 | 0.00 | 0.00 | 0.00 | 43 | 1020.4 |
| 20260502183325 | 15 | 356 | 16.1 | 25.7 | 0.00 | 0.00 | 0.00 | 43 | 1020.3 |
| 20260502182820 | 14 | 4 | 9.7 | 16.1 | 0.00 | 0.00 | 0.00 | 44 | 1020.2 |
| 20260502182316 | 15 | 350 | 14.5 | 22.5 | 0.00 | 0.00 | 0.00 | 43 | 1020.3 |
| 20260502181813 | 14 | 350 | 14.5 | 20.9 | 0.00 | 0.00 | 0.00 | 43 | 1020.4 |
| 20260502181312 | 15 | 320 | 16.1 | 17.7 | 0.00 | 0.00 | 0.00 | 42 | 1020.4 |
| 20260502180809 | 15 | 0 | 11.3 | 16.1 | 0.00 | 0.00 | 0.00 | 43 | 1020.4 |
| 20260502180306 | 15 | 5 | 12.9 | 16.1 | 0.00 | 0.00 | 0.00 | 42 | 1020.5 |
| 20260502170225 | 13 | 350 | 11.3 | 12.9 | 0.00 | 0.00 | 0.00 | 47 | 1020.4 |
| 20260502164207 | 13 | 319 | 14.5 | 20.9 | 0.00 | 0.00 | 0.00 | 47 | 1020.7 |
| 20260502163702 | 13 | 319 | 14.5 | 20.9 | 0.00 | 0.00 | 0.00 | 47 | 1020.5 |
| 20260502163159 | 13 | 319 | 14.5 | 20.9 | 0.00 | 0.00 | 0.00 | 47 | 1020.6 |
| 20260502162655 | 13 | 319 | 14.5 | 20.9 | 0.00 | 0.00 | 0.00 | 47 | 1020.5 |
| 20260502162152 | 13 | 319 | 14.5 | 20.9 | 0.00 | 0.00 | 0.00 | 47 | 1020.7 |
| 20260502161650 | 13 | 315 | 16.1 | 17.7 | 0.00 | 0.00 | 0.00 | 47 | 1020.5 |
| 20260502161146 | 13 | 347 | 24.1 | 29.0 | 0.00 | 0.00 | 0.00 | 46 | 1020.7 |
| 20260502160644 | 13 | 349 | 22.5 | 25.7 | 0.00 | 0.00 | 0.00 | 46 | 1020.5 |
| 20260502160143 | 13 | 349 | 22.5 | 25.7 | 0.00 | 0.00 | 0.00 | 46 | 1020.4 |
| 20260502152057 | 12 | 0 | 22.5 | 27.4 | 0.00 | 0.00 | 0.00 | 50 | 1020.3 |
| 20260502151554 | 12 | 346 | 25.7 | 29.0 | 0.00 | 0.00 | 0.00 | 49 | 1020.2 |
| 20260502151051 | 12 | 349 | 24.1 | 29.0 | 0.00 | 0.00 | 0.00 | 50 | 1020.0 |
| 20260502150549 | 11 | 338 | 24.1 | 27.4 | 0.00 | 0.00 | 0.00 | 52 | 1020.1 |
| 20260502130433 | 8 | 3 | 12.9 | 16.1 | 0.00 | 0.00 | 0.00 | 56 | 1019.5 |
| 20260502123416 | 8 | 353 | 12.9 | 16.1 | 0.00 | 0.00 | 0.00 | 53 | 1019.4 |
| 20260502122913 | 9 | 335 | 17.7 | 17.7 | 0.00 | 0.00 | 0.00 | 52 | 1019.2 |
| 20260502122409 | 9 | 1 | 17.7 | 27.4 | 0.00 | 0.00 | 0.00 | 52 | 1019.1 |
| 20260502121908 | 10 | 358 | 20.9 | 27.4 | 0.00 | 0.00 | 0.00 | 50 | 1019.2 |
| 20260502121404 | 9 | 353 | 22.5 | 27.4 | 0.00 | 0.00 | 0.00 | 51 | 1018.9 |
| 20260502120902 | 9 | 347 | 16.1 | 22.5 | 0.00 | 0.00 | 0.00 | 51 | 1019.2 |
| 20260502120358 | 10 | 357 | 17.7 | 22.5 | 0.00 | 0.00 | 0.00 | 49 | 1019.1 |
| 20260502115855 | 10 | 4 | 19.3 | 30.6 | 0.00 | 0.00 | 0.00 | 49 | 1018.8 |
| 20260502115353 | 10 | 354 | 24.1 | 30.6 | 0.00 | 0.00 | 0.00 | 49 | 1018.6 |
| 20260502114848 | 9 | 359 | 20.9 | 24.1 | 0.00 | 0.00 | 0.00 | 49 | 1018.9 |
| 20260502114346 | 9 | 359 | 20.9 | 29.0 | 0.00 | 0.00 | 0.00 | 49 | 1018.8 |
| 20260502113843 | 10 | 339 | 14.5 | 16.1 | 0.00 | 0.00 | 0.00 | 49 | 1018.6 |
| 20260502113340 | 11 | 356 | 24.1 | 25.7 | 0.00 | 0.00 | 0.00 | 46 | 1018.8 |
| 20260502112838 | 11 | 356 | 24.1 | 25.7 | 0.00 | 0.00 | 0.00 | 46 | 1018.6 |
| 20260502112335 | 11 | 356 | 24.1 | 25.7 | 0.00 | 0.00 | 0.00 | 46 | 1018.5 |
| 20260502111833 | 10 | 345 | 20.9 | 24.1 | 0.00 | 0.00 | 0.00 | 48 | 1018.3 |
| 20260502111331 | 10 | 349 | 20.9 | 22.5 | 0.00 | 0.00 | 0.00 | 47 | 1018.4 |
| 20260502110828 | 10 | 19 | 14.5 | 16.1 | 0.00 | 0.00 | 0.00 | 48 | 1018.4 |
| 20260502110326 | 11 | 14 | 20.9 | 22.5 | 0.00 | 0.00 | 0.00 | 45 | 1018.2 |
| 20260502105823 | 11 | 2 | 17.7 | 22.5 | 0.00 | 0.00 | 0.00 | 45 | 1018.3 |
| 20260502105320 | 11 | 12 | 20.9 | 33.8 | 0.00 | 0.00 | 0.00 | 44 | 1017.8 |
| 20260502104817 | 11 | 24 | 29.0 | 35.4 | 0.00 | 0.00 | 0.00 | 43 | 1017.9 |
| 20260502104314 | 11 | 48 | 19.3 | 27.4 | 0.00 | 0.00 | 0.00 | 44 | 1017.6 |
| 20260502103812 | 11 | 39 | 20.9 | 33.8 | 0.00 | 0.00 | 0.00 | 43 | 1017.5 |
| 20260502103309 | 11 | 31 | 24.1 | 30.6 | 0.00 | 0.00 | 0.00 | 43 | 1017.5 |
| 20260502102806 | 11 | 41 | 22.5 | 27.4 | 0.00 | 0.00 | 0.00 | 43 | 1017.3 |
| 20260502102305 | 11 | 39 | 22.5 | 37.0 | 0.00 | 0.00 | 0.00 | 43 | 1017.4 |
| 20260502101800 | 11 | 54 | 19.3 | 35.4 | 0.00 | 0.00 | 0.00 | 42 | 1017.2 |
| 20260502101258 | 11 | 33 | 22.5 | 27.4 | 0.00 | 0.00 | 0.00 | 43 | 1017.4 |
| 20260502100756 | 10 | 36 | 16.1 | 24.1 | 0.00 | 0.00 | 0.00 | 44 | 1017.3 |
| 20260502100255 | 10 | 359 | 20.9 | 24.1 | 0.00 | 0.00 | 0.00 | 46 | 1017.5 |
| 20260502091229 | 11 | 352 | 19.3 | 20.9 | 0.00 | 0.00 | 0.00 | 41 | 1016.3 |
| 20260502090726 | 11 | 354 | 22.5 | 24.1 | 0.00 | 0.00 | 0.00 | 41 | 1016.3 |
| 20260502090223 | 11 | 352 | 17.7 | 20.9 | 0.00 | 0.00 | 0.00 | 40 | 1016.5 |
| 20260502071124 | 13 | 337 | 8.0 | 11.3 | 0.00 | 0.00 | 0.00 | 33 | 1016.3 |
| 20260502070622 | 11 | 345 | 9.7 | 12.9 | 0.00 | 0.00 | 0.00 | 36 | 1016.5 |
| 20260502070120 | 12 | 336 | 9.7 | 12.9 | 0.00 | 0.00 | 0.00 | 38 | 1016.4 |
| 20260502065618 | 12 | 352 | 11.3 | 14.5 | 0.00 | 0.00 | 0.00 | 36 | 1016.2 |
| 20260502065115 | 12 | 346 | 12.9 | 16.1 | 0.00 | 0.00 | 0.00 | 37 | 1016.3 |
| 20260502064614 | 12 | 349 | 12.9 | 14.5 | 0.00 | 0.00 | 0.00 | 36 | 1016.4 |
| 20260502064111 | 12 | 339 | 14.5 | 14.5 | 0.00 | 0.00 | 0.00 | 34 | 1016.4 |
| 20260502063608 | 12 | 347 | 14.5 | 16.1 | 0.00 | 0.00 | 0.00 | 36 | 1016.5 |
| 20260502063106 | 12 | 349 | 12.9 | 16.1 | 0.00 | 0.00 | 0.00 | 35 | 1016.0 |
| 20260502062603 | 11 | 352 | 14.5 | 16.1 | 0.00 | 0.00 | 0.00 | 37 | 1016.3 |
| 20260502062101 | 12 | 352 | 16.1 | 17.7 | 0.00 | 0.00 | 0.00 | 37 | 1016.3 |
| 20260502061559 | 12 | 353 | 17.7 | 17.7 | 0.00 | 0.00 | 0.00 | 36 | 1016.2 |
| 20260502061056 | 12 | 352 | 14.5 | 16.1 | 0.00 | 0.00 | 0.00 | 36 | 1016.4 |
| 20260502060556 | 13 | 2 | 17.7 | 17.7 | 0.00 | 0.00 | 0.00 | 34 | 1016.2 |
| 20260502060053 | 13 | 0 | 14.5 | 17.7 | 0.00 | 0.00 | 0.00 | 34 | 1016.0 |
| 20260502055550 | 13 | 0 | 14.5 | 16.1 | 0.00 | 0.00 | 0.00 | 33 | 1016.0 |
| 20260502055049 | 13 | 344 | 9.7 | 12.9 | 0.00 | 0.00 | 0.00 | 33 | 1016.3 |
| 20260502054547 | 13 | 355 | 14.5 | 14.5 | 0.00 | 0.00 | 0.00 | 33 | 1016.2 |
| 20260502054044 | 13 | 340 | 12.9 | 12.9 | 0.00 | 0.00 | 0.00 | 33 | 1016.3 |
| 20260502053541 | 14 | 326 | 9.7 | 12.9 | 0.00 | 0.00 | 0.00 | 32 | 1016.3 |
| 20260502053039 | 13 | 333 | 11.3 | 12.9 | 0.00 | 0.00 | 0.00 | 32 | 1016.3 |
| 20260502052537 | 13 | 332 | 9.7 | 12.9 | 0.00 | 0.00 | 0.00 | 33 | 1016.4 |
| 20260502052035 | 14 | 335 | 9.7 | 12.9 | 0.00 | 0.00 | 0.00 | 31 | 1016.3 |
| 20260502051532 | 13 | 320 | 9.7 | 12.9 | 0.00 | 0.00 | 0.00 | 32 | 1016.2 |
| 20260502051030 | 13 | 315 | 8.0 | 9.7 | 0.00 | 0.00 | 0.00 | 33 | 1016.3 |
| 20260502050526 | 13 | 307 | 6.4 | 9.7 | 0.00 | 0.00 | 0.00 | 34 | 1016.3 |
| 20260502050023 | 13 | 294 | 6.4 | 11.3 | 0.00 | 0.00 | 0.00 | 32 | 1016.3 |
| 20260502045520 | 15 | 293 | 8.0 | 11.3 | 0.00 | 0.00 | 0.00 | 31 | 1016.3 |
| 20260502045017 | 15 | 274 | 11.3 | 14.5 | 0.00 | 0.00 | 0.00 | 29 | 1016.5 |
| 20260502044513 | 15 | 280 | 12.9 | 14.5 | 0.00 | 0.00 | 0.00 | 28 | 1016.3 |
| 20260502044010 | 14 | 293 | 9.7 | 14.5 | 0.00 | 0.00 | 0.00 | 30 | 1016.4 |
| 20260502043508 | 13 | 297 | 12.9 | 16.1 | 0.00 | 0.00 | 0.00 | 31 | 1016.3 |
| 20260502043004 | 13 | 305 | 11.3 | 12.9 | 0.00 | 0.00 | 0.00 | 31 | 1016.3 |
| 20260502042459 | 13 | 297 | 11.3 | 12.9 | 0.00 | 0.00 | 0.00 | 31 | 1016.2 |
| 20260502041957 | 13 | 298 | 11.3 | 12.9 | 0.00 | 0.00 | 0.00 | 31 | 1016.2 |
| 20260502041455 | 13 | 297 | 11.3 | 12.9 | 0.00 | 0.00 | 0.00 | 31 | 1016.0 |
| 20260502040951 | 13 | 303 | 11.3 | 14.5 | 0.00 | 0.00 | 0.00 | 30 | 1016.2 |
| 20260502040448 | 13 | 297 | 11.3 | 12.9 | 0.00 | 0.00 | 0.00 | 31 | 1016.3 |
| 20260502035944 | 13 | 305 | 11.3 | 12.9 | 0.00 | 0.00 | 0.00 | 31 | 1016.2 |
| 20260502035440 | 13 | 302 | 9.7 | 11.3 | 0.00 | 0.00 | 0.00 | 31 | 1016.2 |
| 20260502034938 | 13 | 308 | 6.4 | 9.7 | 0.00 | 0.00 | 0.00 | 31 | 1016.0 |
| 20260502034437 | 13 | 270 | 4.8 | 4.8 | 0.00 | 0.00 | 0.00 | 29 | 1016.2 |
| 20260502033935 | 13 | 289 | 3.2 | 9.7 | 0.00 | 0.00 | 0.00 | 30 | 1015.8 |
| 20260502033431 | 13 | 301 | 6.4 | 9.7 | 0.00 | 0.00 | 0.00 | 30 | 1015.7 |